createdAt,value
2023-04-26T00:01:18.922Z,100123.53
2023-04-26T00:06:17.703Z,100129.00
2023-04-26T00:11:16.436Z,100132.34
2023-04-26T00:16:15.502Z,100129.41
2023-04-26T00:21:14.365Z,100138.31
2023-04-26T00:26:13.200Z,100142.06
2023-04-26T00:31:18.836Z,100133.53
2023-04-26T00:36:19.394Z,100139.81
2023-04-26T00:41:18.602Z,100148.88
2023-04-26T00:46:17.493Z,100147.28
2023-04-26T00:51:16.900Z,100150.31
2023-04-26T00:56:16.857Z,100149.75
2023-04-26T01:01:17.561Z,100167.53
2023-04-26T01:06:17.932Z,100153.97
2023-04-26T01:11:19.563Z,100164.44
2023-04-26T01:16:20.015Z,100163.44
2023-04-26T01:21:22.810Z,100169.03
2023-04-26T01:26:21.841Z,100157.50
2023-04-26T01:31:21.340Z,100167.03
2023-04-26T01:36:20.182Z,100173.03
2023-04-26T01:41:18.981Z,100171.78
2023-04-26T01:46:17.869Z,100175.91
2023-04-26T01:51:16.876Z,100179.47
2023-04-26T01:56:16.216Z,100177.25
2023-04-26T02:01:15.016Z,100186.16
2023-04-26T02:06:16.848Z,100183.88
2023-04-26T02:11:16.577Z,100186.56
2023-04-26T02:16:17.025Z,100186.56
2023-04-26T02:21:20.700Z,100189.97
2023-04-26T02:26:19.445Z,100188.63
2023-04-26T02:31:18.257Z,100183.25
2023-04-26T02:36:17.311Z,100188.34
2023-04-26T02:41:16.115Z,100180.59
2023-04-26T02:46:17.260Z,100177.16
2023-04-26T02:51:16.322Z,100180.53
2023-04-26T02:56:15.209Z,100178.19
2023-04-26T03:01:14.930Z,100179.59
2023-04-26T03:06:14.483Z,100184.19
2023-04-26T03:11:13.559Z,100193.03
2023-04-26T03:16:12.464Z,100195.34
2023-04-26T03:21:12.091Z,100192.81
2023-04-26T03:26:11.188Z,100196.75
2023-04-26T03:31:09.990Z,100203.63
2023-04-26T03:36:09.412Z,100200.56
2023-04-26T03:41:08.435Z,100205.50
2023-04-26T03:46:07.388Z,100210.81
2023-04-26T03:51:07.078Z,100215.00
2023-04-26T03:56:06.216Z,100225.16
2023-04-26T04:01:05.893Z,100222.06
2023-04-26T04:06:05.152Z,100224.13
2023-04-26T04:11:03.967Z,100227.44
2023-04-26T04:16:05.442Z,100225.16
2023-04-26T04:21:04.327Z,100227.63
2023-04-26T04:26:03.409Z,100229.47
2023-04-26T04:31:02.600Z,100233.59
2023-04-26T04:36:01.675Z,100236.31
2023-04-26T04:41:00.603Z,100242.72
2023-04-26T04:45:59.458Z,100239.09
2023-04-26T04:50:58.444Z,100247.19
2023-04-26T04:55:58.126Z,100247.56
2023-04-26T05:00:57.047Z,100252.81
2023-04-26T05:06:01.425Z,100252.22
2023-04-26T05:11:01.112Z,100249.38
2023-04-26T05:16:00.568Z,100255.28
2023-04-26T05:20:59.586Z,100271.72
2023-04-26T05:26:02.351Z,100274.22
2023-04-26T05:31:30.210Z,100273.31
2023-04-26T05:36:49.475Z,100280.97
2023-04-26T05:41:48.420Z,100285.72
2023-04-26T05:46:47.630Z,100297.09
2023-04-26T05:51:46.782Z,100294.34
2023-04-26T05:56:46.000Z,100296.81
2023-04-26T06:01:44.910Z,100296.47
2023-04-26T06:06:43.761Z,100303.78
2023-04-26T06:11:42.571Z,100305.41
2023-04-26T06:16:43.752Z,100295.41
2023-04-26T06:21:42.760Z,100300.50
2023-04-26T06:26:41.743Z,100294.88
2023-04-26T06:31:40.972Z,100309.81
2023-04-26T06:36:40.640Z,100307.47
2023-04-26T06:41:39.802Z,100311.19
2023-04-26T06:46:42.101Z,100310.56
2023-04-26T06:51:41.249Z,100313.00
2023-04-26T06:56:40.033Z,100315.47
2023-04-26T07:01:39.272Z,100321.03
2023-04-26T07:06:39.552Z,100326.19
2023-04-26T07:11:38.441Z,100319.81
2023-04-26T07:16:37.416Z,100315.78
2023-04-26T07:21:36.247Z,100327.84
2023-04-26T07:26:37.011Z,100326.06
2023-04-26T07:31:35.998Z,100325.25
2023-04-26T07:36:34.750Z,100329.25
2023-04-26T07:41:33.899Z,100331.66
2023-04-26T07:46:36.064Z,100323.41
2023-04-26T07:51:36.520Z,100325.34
2023-04-26T07:56:35.354Z,100322.41
2023-04-26T08:01:34.403Z,100321.66
2023-04-26T08:06:33.325Z,100314.03
2023-04-26T08:11:32.829Z,100310.47
2023-04-26T08:16:32.053Z,100324.59
2023-04-26T08:21:31.811Z,100327.97
2023-04-26T08:26:30.735Z,100336.19
2023-04-26T08:31:29.523Z,100342.19
2023-04-26T08:36:28.456Z,100332.84
2023-04-26T08:41:27.709Z,100336.53
2023-04-26T08:46:28.662Z,100344.56
2023-04-26T08:51:27.922Z,100335.91
2023-04-26T08:56:29.957Z,100321.72
2023-04-26T09:01:30.869Z,100334.00
2023-04-26T09:06:29.926Z,100327.81
2023-04-26T09:11:29.584Z,100328.06
2023-04-26T09:16:37.764Z,100330.22
2023-04-26T09:21:44.644Z,100320.72
2023-04-26T09:26:43.494Z,100332.63
2023-04-26T09:31:49.609Z,100338.22
2023-04-26T09:36:58.581Z,100324.44
2023-04-26T09:41:57.937Z,100329.75
2023-04-26T09:47:10.126Z,100339.81
2023-04-26T09:52:09.189Z,100345.53
2023-04-26T09:57:08.139Z,100339.59
2023-04-26T10:02:27.500Z,100336.47
2023-04-26T10:07:26.626Z,100331.16
2023-04-26T10:12:25.360Z,100333.75
2023-04-26T10:17:24.359Z,100333.25
2023-04-26T10:22:31.219Z,100331.75
2023-04-26T10:27:45.419Z,100327.03
2023-04-26T10:32:53.593Z,100332.13
2023-04-26T10:38:02.331Z,100341.22
2023-04-26T10:43:16.448Z,100336.94
2023-04-26T10:48:19.508Z,100335.44
2023-04-26T10:53:18.389Z,100328.31
2023-04-26T10:58:31.550Z,100322.56
2023-04-26T11:03:31.413Z,100327.75
2023-04-26T11:08:35.746Z,100320.78
2023-04-26T11:13:44.417Z,100323.03
2023-04-26T11:18:46.968Z,100320.34
2023-04-26T11:23:55.528Z,100320.34
2023-04-26T11:28:54.817Z,100327.88
2023-04-26T11:33:53.805Z,100329.97
2023-04-26T11:38:54.274Z,100325.88
2023-04-26T11:43:53.449Z,100339.31
2023-04-26T11:48:53.124Z,100327.94
2023-04-26T11:53:52.491Z,100330.69
2023-04-26T11:58:53.057Z,100349.94
2023-04-26T12:03:54.289Z,100340.66
2023-04-26T12:08:53.625Z,100358.97
2023-04-26T12:13:52.728Z,100366.84
2023-04-26T12:18:54.518Z,100355.81
2023-04-26T12:23:53.688Z,100356.31
2023-04-26T12:28:52.611Z,100343.28
2023-04-26T12:33:51.702Z,100347.47
2023-04-26T12:38:50.808Z,100349.53
2023-04-26T12:43:49.597Z,100345.19
2023-04-26T12:48:48.498Z,100347.25
2023-04-26T12:53:47.314Z,100344.81
2023-04-26T12:58:46.551Z,100341.97
2023-04-26T13:03:45.887Z,100344.78
2023-04-26T13:08:44.891Z,100347.22
2023-04-26T13:13:44.872Z,100346.88
2023-04-26T13:18:44.028Z,100346.88
2023-04-26T13:23:42.915Z,100334.75
2023-04-26T13:28:41.949Z,100337.50
2023-04-26T13:33:40.973Z,100342.34
2023-04-26T13:38:40.587Z,100323.47
2023-04-26T13:43:39.465Z,100330.00
2023-04-26T13:48:38.244Z,100330.41
2023-04-26T13:53:37.256Z,100335.31
2023-04-26T13:58:36.708Z,100344.50
2023-04-26T14:03:35.845Z,100346.41
2023-04-26T14:08:35.587Z,100347.47
2023-04-26T14:13:35.792Z,100350.03
2023-04-26T14:18:34.763Z,100356.13
2023-04-26T14:23:33.618Z,100354.22
2023-04-26T14:28:32.614Z,100348.19
2023-04-26T14:33:31.564Z,100350.22
2023-04-26T14:38:31.557Z,100360.63
2023-04-26T14:43:30.568Z,100355.78
2023-04-26T14:48:29.352Z,100356.50
2023-04-26T14:53:28.175Z,100352.44
2023-04-26T14:58:27.395Z,100350.13
2023-04-26T15:03:27.231Z,100364.78
2023-04-26T15:08:26.728Z,100366.59
2023-04-26T15:13:25.580Z,100359.00
2023-04-26T15:18:24.537Z,100357.44
2023-04-26T15:23:23.703Z,100354.94
2023-04-26T15:28:22.521Z,100359.53
2023-04-26T15:33:21.331Z,100360.44
2023-04-26T15:38:20.201Z,100368.63
2023-04-26T15:43:19.457Z,100365.22
2023-04-26T15:48:18.371Z,100366.44
2023-04-26T15:53:17.401Z,100372.66
2023-04-26T15:58:17.139Z,100371.06
2023-04-26T16:03:16.993Z,100363.22
2023-04-26T16:08:27.731Z,100365.44
2023-04-26T16:13:33.744Z,100360.56
2023-04-26T16:18:32.910Z,100360.81
2023-04-26T16:23:31.824Z,100368.94
2023-04-26T16:28:30.768Z,100365.44
2023-04-26T16:33:29.863Z,100361.22
2023-04-26T16:38:28.718Z,100367.34
2023-04-26T16:43:29.057Z,100373.31
2023-04-26T16:48:28.225Z,100374.44
2023-04-26T16:53:27.627Z,100372.97
2023-04-26T16:58:26.683Z,100373.22
2023-04-26T17:03:26.090Z,100374.88
2023-04-26T17:08:25.946Z,100383.22
2023-04-26T17:13:29.242Z,100382.97
2023-04-26T17:18:28.154Z,100384.69
2023-04-26T17:23:27.802Z,100383.22
2023-04-26T17:28:26.831Z,100392.50
2023-04-26T17:33:26.094Z,100396.72
2023-04-26T17:38:25.005Z,100398.03
2023-04-26T17:43:23.867Z,100400.94
2023-04-26T17:48:22.941Z,100392.84
2023-04-26T17:53:22.624Z,100400.25
2023-04-26T17:58:21.922Z,100400.50
2023-04-26T18:03:21.198Z,100406.84
2023-04-26T18:08:20.569Z,100408.97
2023-04-26T18:13:20.308Z,100414.94
2023-04-26T18:18:19.341Z,100412.00
2023-04-26T18:23:18.475Z,100421.06
2023-04-26T18:28:17.425Z,100428.44
2023-04-26T18:33:16.375Z,100423.22
2023-04-26T18:38:15.493Z,100429.44
2023-04-26T18:43:14.513Z,100436.53
2023-04-26T18:48:13.377Z,100442.81
2023-04-26T18:53:12.140Z,100446.19
2023-04-26T18:58:11.404Z,100447.31
2023-04-26T19:03:10.317Z,100446.50
2023-04-26T19:08:09.428Z,100451.22
2023-04-26T19:13:08.318Z,100461.69
2023-04-26T19:18:07.364Z,100460.63
2023-04-26T19:23:06.506Z,100464.63
2023-04-26T19:28:05.260Z,100458.88
2023-04-26T19:33:04.201Z,100465.69
2023-04-26T19:38:05.348Z,100469.19
2023-04-26T19:43:04.189Z,100475.06
2023-04-26T19:48:03.385Z,100477.25
2023-04-26T19:53:02.351Z,100482.19
2023-04-26T19:58:01.326Z,100473.19
2023-04-26T20:03:00.390Z,100474.19
2023-04-26T20:07:59.332Z,100474.44
2023-04-26T20:12:59.366Z,100475.13
2023-04-26T20:17:58.311Z,100472.94
2023-04-26T20:22:57.167Z,100468.41
2023-04-26T20:27:56.753Z,100470.25
2023-04-26T20:32:55.665Z,100469.84
2023-04-26T20:37:54.599Z,100471.50
2023-04-26T20:42:53.387Z,100470.94
2023-04-26T20:47:52.267Z,100474.81
2023-04-26T20:52:51.428Z,100474.63
2023-04-26T20:57:50.442Z,100471.88
2023-04-26T21:02:49.406Z,100463.06
2023-04-26T21:07:48.443Z,100462.31
2023-04-26T21:12:47.406Z,100464.63
2023-04-26T21:17:46.245Z,100473.53
2023-04-26T21:22:45.053Z,100477.94
2023-04-26T21:27:43.823Z,100482.00
2023-04-26T21:32:42.738Z,100485.69
2023-04-26T21:37:41.725Z,100489.63
2023-04-26T21:42:41.218Z,100496.63
2023-04-26T21:47:41.111Z,100500.56
2023-04-26T21:52:40.527Z,100506.75
2023-04-26T21:57:39.444Z,100510.66
2023-04-26T22:02:39.190Z,100514.09
2023-04-26T22:07:38.406Z,100516.75
2023-04-26T22:12:37.207Z,100516.94
2023-04-26T22:17:36.031Z,100523.53
2023-04-26T22:22:34.886Z,100526.78
2023-04-26T22:27:33.677Z,100533.72
2023-04-26T22:32:32.556Z,100531.19
2023-04-26T22:37:31.617Z,100535.22
2023-04-26T22:42:33.552Z,100538.19
2023-04-26T22:47:32.385Z,100536.53
2023-04-26T22:52:32.266Z,100543.75
2023-04-26T22:57:31.637Z,100543.47
2023-04-26T23:02:30.613Z,100555.16
2023-04-26T23:07:29.478Z,100548.75
2023-04-26T23:12:28.418Z,100559.19
2023-04-26T23:17:27.662Z,100558.63
2023-04-26T23:22:28.297Z,100551.28
2023-04-26T23:27:27.092Z,100554.28
2023-04-26T23:32:26.435Z,100555.44
2023-04-26T23:37:25.301Z,100567.34
2023-04-26T23:42:24.130Z,100561.47
2023-04-26T23:47:23.020Z,100558.69
2023-04-26T23:52:21.891Z,100554.44
2023-04-26T23:57:20.949Z,100554.84
